Time;durP1;ratioP1;P1;durP2;ratioP2;P2;SDS_P1;SDS_P2;PMS_P1;PMS_P2;Temp;Humidity;BMP_temperature;BMP_pressure;BME280_temperature;BME280_humidity;BME280_pressure;Samples;Min_cycle;Max_cycle;Signal;HPM_P1;HPM_P2
2022/12/30 00:01:49;;;;;;;;;;;6.20;99.90;;;;;;5072725;28;20016;-86
2022/12/30 00:04:15;;;;;;;;;;;6.20;99.90;;;;;;5052434;28;20404;-86
2022/12/30 00:06:40;;;;;;;;;;;6.20;99.90;;;;;;5088875;27;19931;-86
2022/12/30 00:09:06;;;;;;;;;;;6.20;99.90;;;;;;5071795;28;19932;-86
2022/12/30 00:11:33;;;;;;;;;;;6.20;99.90;;;;;;5072884;28;19927;-86
2022/12/30 00:33:29;;;;;;;;;;;6.10;99.90;;;;;;5089018;28;20011;-86
2022/12/30 00:35:55;;;;;;;;;;;6.20;99.90;;;;;;5076564;27;19927;-86
2022/12/30 00:38:21;;;;;;;;;;;6.10;99.90;;;;;;5086894;28;20270;-86
2022/12/30 00:43:31;;;;;;;;;;;6.10;99.90;;;;;;5104703;27;19928;-86
2022/12/30 00:45:57;;;;;;;;;;;6.00;99.90;;;;;;5054053;28;19920;-86
2022/12/30 00:56:36;;;;;;;;;;;5.90;99.90;;;;;;5073223;28;19919;-86
2022/12/30 00:59:02;;;;;;;;;;;5.90;99.90;;;;;;5086933;28;20046;-86
2022/12/30 01:01:28;;;;;;;;;;;5.80;99.90;;;;;;5066971;28;19928;-86
2022/12/30 01:03:53;;;;;;;;;;;5.80;99.90;;;;;;5053655;28;20369;-86
2022/12/30 01:06:19;;;;;;;;;;;5.80;99.90;;;;;;5085426;28;19920;-86
2022/12/30 01:08:45;;;;;;;;;;;5.80;99.90;;;;;;5071981;28;19924;-86
2022/12/30 01:11:10;;;;;;;;;;;5.80;99.90;;;;;;5068371;28;20051;-86
2022/12/30 01:13:36;;;;;;;;;;;5.70;99.90;;;;;;5071935;28;20007;-86
2022/12/30 01:16:20;;;;;;;;;;;5.70;99.90;;;;;;5089057;28;19952;-85
2022/12/30 01:18:46;;;;;;;;;;;5.70;99.90;;;;;;5087371;28;19942;-86
2022/12/30 01:21:11;;;;;;;;;;;6.10;99.90;;;;;;5065925;28;19924;-86
2022/12/30 01:23:37;;;;;;;;;;;5.60;99.90;;;;;;5068154;27;20300;-86
2022/12/30 01:26:03;;;;;;;;;;;5.60;99.90;;;;;;5068834;28;19930;-86
2022/12/30 01:28:30;;;;;;;;;;;5.60;99.90;;;;;;5066624;28;19952;-85
2022/12/30 01:30:56;;;;;;;;;;;5.50;99.90;;;;;;5087425;28;19977;-86
2022/12/30 01:33:21;;;;;;;;;;;5.80;99.90;;;;;;5072375;28;19924;-86
2022/12/30 01:35:47;;;;;;;;;;;5.50;99.90;;;;;;5053353;28;19919;-86
2022/12/30 01:38:12;;;;;;;;;;;5.60;99.90;;;;;;5071004;28;19927;-86
2022/12/30 01:40:39;;;;;;;;;;;5.50;99.90;;;;;;5088778;28;20208;-86
2022/12/30 01:43:04;;;;;;;;;;;5.50;99.90;;;;;;5067328;28;19920;-86
2022/12/30 01:45:30;;;;;;;;;;;5.40;99.90;;;;;;5054071;28;19924;-86
2022/12/30 01:48:20;;;;;;;;;;;5.50;99.90;;;;;;5069456;28;19920;-86
2022/12/30 01:50:56;;;;;;;;;;;5.50;99.90;;;;;;5067349;28;19973;-86
2022/12/30 01:53:26;;;;;;;;;;;5.40;99.90;;;;;;5083054;28;19967;-86
2022/12/30 01:55:55;;;;;;;;;;;5.50;99.90;;;;;;5066972;28;20449;-86
2022/12/30 01:58:26;;;;;;;;;;;5.40;99.90;;;;;;5086302;28;20442;-86
2022/12/30 02:00:52;;;;;;;;;;;5.40;99.90;;;;;;5069448;28;20146;-86
2022/12/30 02:03:18;;;;;;;;;;;5.40;99.90;;;;;;5071847;28;19932;-86
2022/12/30 02:05:44;;;;;;;;;;;5.70;99.90;;;;;;5091103;28;20404;-85
2022/12/30 02:08:11;;;;;;;;;;;5.40;99.90;;;;;;5057113;28;19932;-85
2022/12/30 02:10:38;;;;;;;;;;;5.40;99.90;;;;;;5070945;28;20678;-85
2022/12/30 02:13:04;;;;;;;;;;;5.40;99.90;;;;;;5087699;28;19923;-85
2022/12/30 02:15:34;;;;;;;;;;;5.40;99.90;;;;;;5046390;28;19920;-86
2022/12/30 02:18:08;;;;;;;;;;;5.40;99.90;;;;;;5071150;28;20010;-86
2022/12/30 02:20:53;;;;;;;;;;;5.30;99.90;;;;;;5100241;28;20048;-85
2022/12/30 02:23:37;;;;;;;;;;;5.40;99.90;;;;;;5071004;28;20330;-86
2022/12/30 02:26:06;;;;;;;;;;;5.30;99.90;;;;;;5070627;28;19927;-86
2022/12/30 02:28:47;;;;;;;;;;;5.30;99.90;;;;;;5082921;27;19920;-86
2022/12/30 02:31:18;;;;;;;;;;;5.30;99.90;;;;;;5087112;28;19927;-86
2022/12/30 02:33:47;;;;;;;;;;;5.30;99.90;;;;;;5069328;28;19924;-86
2022/12/30 02:36:31;;;;;;;;;;;5.40;99.90;;;;;;5067829;27;20372;-85
2022/12/30 02:39:03;;;;;;;;;;;5.30;99.90;;;;;;5069710;28;20436;-86
2022/12/30 02:44:36;;;;;;;;;;;5.20;99.90;;;;;;5087368;28;19935;-86
2022/12/30 02:47:20;;;;;;;;;;;5.30;99.90;;;;;;5077315;28;19928;-86
2022/12/30 02:52:14;;;;;;;;;;;5.20;99.90;;;;;;5068346;28;20038;-86
2022/12/30 02:52:35;;;;;;;;;;;5.50;99.90;;;;;;5085176;28;19950;-86
2022/12/30 02:55:00;;;;;;;;;;;5.20;99.90;;;;;;5069281;28;20365;-85
2022/12/30 02:57:28;;;;;;;;;;;5.10;99.90;;;;;;5054415;28;19928;-85
2022/12/30 03:05:37;;;;;;;;;;;5.00;99.90;;;;;;5082853;28;20342;-86
2022/12/30 03:08:24;;;;;;;;;;;4.90;99.90;;;;;;5083565;28;20251;-86
2022/12/30 03:11:13;;;;;;;;;;;4.90;99.90;;;;;;5067857;28;19920;-86
2022/12/30 03:13:54;;;;;;;;;;;4.80;99.90;;;;;;5087278;28;19979;-85
2022/12/30 03:16:26;;;;;;;;;;;4.80;99.90;;;;;;5066863;28;20356;-85
2022/12/30 03:18:53;;;;;;;;;;;4.80;99.90;;;;;;5084774;28;19926;-86
2022/12/30 03:21:19;;;;;;;;;;;4.70;99.90;;;;;;5065442;28;20012;-86
2022/12/30 03:29:18;;;;;;;;;;;4.80;99.90;;;;;;5087110;28;20588;-85
2022/12/30 03:31:44;;;;;;;;;;;4.70;99.90;;;;;;5070103;28;19923;-85
2022/12/30 03:34:10;;;;;;;;;;;4.70;99.90;;;;;;5070723;28;19926;-85
2022/12/30 03:36:41;;;;;;;;;;;4.70;99.90;;;;;;5074839;28;19977;-86
2022/12/30 03:39:24;;;;;;;;;;;4.80;99.90;;;;;;5086864;28;19939;-86
2022/12/30 03:41:50;;;;;;;;;;;4.70;99.90;;;;;;5072905;28;19973;-86
2022/12/30 03:44:19;;;;;;;;;;;4.80;99.90;;;;;;5071239;28;19931;-85
2022/12/30 03:46:45;;;;;;;;;;;4.70;99.90;;;;;;5073360;28;19924;-86
2022/12/30 03:49:11;;;;;;;;;;;4.70;99.90;;;;;;5074179;27;19928;-85
2022/12/30 03:51:36;;;;;;;;;;;4.70;99.90;;;;;;5062744;28;20003;-86
2022/12/30 03:54:02;;;;;;;;;;;4.70;99.90;;;;;;5086478;28;19927;-86
2022/12/30 03:56:27;;;;;;;;;;;4.70;99.90;;;;;;5056920;28;19970;-86
2022/12/30 03:58:53;;;;;;;;;;;4.70;99.90;;;;;;5055260;28;20010;-86
2022/12/30 04:01:18;;;;;;;;;;;5.10;99.90;;;;;;5055069;27;19923;-86
2022/12/30 04:03:45;;;;;;;;;;;4.60;99.90;;;;;;5090050;28;19920;-86
2022/12/30 04:06:11;;;;;;;;;;;4.70;99.90;;;;;;5072796;27;19928;-86
2022/12/30 04:08:36;;;;;;;;;;;5.00;99.90;;;;;;5056890;28;20059;-86
2022/12/30 04:11:02;;;;;;;;;;;4.70;99.90;;;;;;5056018;27;20266;-85
2022/12/30 04:13:28;;;;;;;;;;;4.70;99.90;;;;;;5084437;28;20358;-85
2022/12/30 04:15:53;;;;;;;;;;;4.70;99.90;;;;;;5091403;28;19950;-86
2022/12/30 04:18:19;;;;;;;;;;;4.70;99.90;;;;;;5069497;28;20408;-85
2022/12/30 04:20:45;;;;;;;;;;;4.70;99.90;;;;;;5077372;28;19945;-86
2022/12/30 04:23:11;;;;;;;;;;;4.80;99.90;;;;;;5068660;28;19959;-86
2022/12/30 04:25:36;;;;;;;;;;;4.70;99.90;;;;;;5072448;28;19959;-86
2022/12/30 04:28:02;;;;;;;;;;;4.90;99.90;;;;;;5071890;28;19920;-86
2022/12/30 04:30:27;;;;;;;;;;;5.00;99.90;;;;;;5073733;28;20034;-86
2022/12/30 04:32:53;;;;;;;;;;;4.60;99.90;;;;;;5087848;28;19939;-86
2022/12/30 04:35:18;;;;;;;;;;;4.60;99.90;;;;;;5069940;28;19981;-86
2022/12/30 04:37:46;;;;;;;;;;;4.60;99.90;;;;;;5087999;28;19934;-86
2022/12/30 04:40:12;;;;;;;;;;;4.50;99.90;;;;;;5089998;28;19930;-86
2022/12/30 04:42:37;;;;;;;;;;;4.50;99.90;;;;;;5055723;28;19923;-86
2022/12/30 04:45:03;;;;;;;;;;;5.30;99.90;;;;;;5069749;28;20007;-85
2022/12/30 04:47:29;;;;;;;;;;;4.40;99.90;;;;;;5057118;28;19919;-86
2022/12/30 04:49:55;;;;;;;;;;;4.50;99.90;;;;;;5063956;28;19920;-86
2022/12/30 04:52:21;;;;;;;;;;;5.00;99.90;;;;;;5057166;28;19924;-85
2022/12/30 04:54:46;;;;;;;;;;;4.60;99.90;;;;;;5089875;28;20336;-86
2022/12/30 04:57:12;;;;;;;;;;;5.30;99.90;;;;;;5068550;28;19950;-86
2022/12/30 04:59:37;;;;;;;;;;;4.80;99.90;;;;;;5086588;28;19919;-86
2022/12/30 05:02:03;;;;;;;;;;;5.30;99.90;;;;;;5068884;28;19924;-86
2022/12/30 05:04:28;;;;;;;;;;;4.50;99.90;;;;;;5069323;28;19927;-86
2022/12/30 05:06:54;;;;;;;;;;;4.50;99.90;;;;;;5085199;28;20014;-85
2022/12/30 05:09:19;;;;;;;;;;;4.50;99.90;;;;;;5070272;28;19928;-86
2022/12/30 05:11:45;;;;;;;;;;;4.50;99.90;;;;;;5085126;28;19939;-86
2022/12/30 05:14:10;;;;;;;;;;;4.50;99.90;;;;;;5072165;28;20276;-85
2022/12/30 05:16:36;;;;;;;;;;;4.50;99.90;;;;;;5069540;28;19927;-85
2022/12/30 05:19:02;;;;;;;;;;;5.40;99.90;;;;;;5072212;28;20024;-85
2022/12/30 05:21:27;;;;;;;;;;;4.60;99.90;;;;;;5070874;28;19920;-86
2022/12/30 05:26:37;;;;;;;;;;;4.50;99.90;;;;;;5067868;28;20343;-86
2022/12/30 05:29:03;;;;;;;;;;;4.80;99.90;;;;;;5063869;28;19935;-86
2022/12/30 05:31:28;;;;;;;;;;;4.50;99.90;;;;;;5054167;28;20373;-86
2022/12/30 05:33:54;;;;;;;;;;;4.60;99.90;;;;;;5055072;28;19919;-86
2022/12/30 05:36:20;;;;;;;;;;;4.50;99.90;;;;;;5054460;28;19927;-86
2022/12/30 05:38:45;;;;;;;;;;;4.60;99.90;;;;;;5065988;28;19920;-86
2022/12/30 05:41:11;;;;;;;;;;;4.50;99.90;;;;;;5053568;28;20038;-86
2022/12/30 05:43:37;;;;;;;;;;;4.50;99.90;;;;;;5053270;28;19920;-86
2022/12/30 05:46:02;;;;;;;;;;;4.60;99.90;;;;;;5070485;28;20412;-86
2022/12/30 05:48:28;;;;;;;;;;;4.40;99.90;;;;;;5072409;27;19920;-86
2022/12/30 05:50:54;;;;;;;;;;;4.40;99.90;;;;;;5071314;28;20399;-86
2022/12/30 05:53:19;;;;;;;;;;;4.90;99.90;;;;;;5069509;28;20541;-86
2022/12/30 05:55:45;;;;;;;;;;;4.60;99.90;;;;;;5049781;28;19928;-86
2022/12/30 05:58:11;;;;;;;;;;;4.50;99.90;;;;;;5086602;28;19920;-86
2022/12/30 06:00:36;;;;;;;;;;;4.30;99.90;;;;;;5071057;28;19920;-86
2022/12/30 06:03:02;;;;;;;;;;;5.00;99.90;;;;;;5068131;27;20368;-85
2022/12/30 06:05:28;;;;;;;;;;;4.30;99.90;;;;;;5049879;28;20381;-85
2022/12/30 06:07:53;;;;;;;;;;;4.30;99.90;;;;;;5052944;28;19924;-86
2022/12/30 06:10:19;;;;;;;;;;;4.20;99.90;;;;;;5067307;28;20369;-86
2022/12/30 06:12:44;;;;;;;;;;;4.20;99.90;;;;;;5068633;28;19924;-86
2022/12/30 06:15:10;;;;;;;;;;;4.10;99.90;;;;;;5055159;28;20376;-86
2022/12/30 06:17:36;;;;;;;;;;;4.20;99.90;;;;;;5070151;28;19942;-86
2022/12/30 06:20:02;;;;;;;;;;;5.10;99.90;;;;;;5070313;28;19984;-85
2022/12/30 06:22:27;;;;;;;;;;;4.20;99.90;;;;;;5070537;28;19920;-85
2022/12/30 06:24:53;;;;;;;;;;;4.30;99.90;;;;;;5071818;28;19961;-86
2022/12/30 06:27:18;;;;;;;;;;;4.20;99.90;;;;;;5068492;28;19934;-86
2022/12/30 06:29:44;;;;;;;;;;;4.20;99.90;;;;;;5053474;28;19920;-86
2022/12/30 06:32:10;;;;;;;;;;;4.10;99.90;;;;;;5070062;28;20352;-86
2022/12/30 06:34:35;;;;;;;;;;;4.10;99.90;;;;;;5046277;28;19920;-86
2022/12/30 06:37:01;;;;;;;;;;;4.10;99.90;;;;;;5085733;28;20383;-86
2022/12/30 06:39:27;;;;;;;;;;;4.50;99.90;;;;;;5070896;28;20392;-86
2022/12/30 06:41:52;;;;;;;;;;;4.00;99.90;;;;;;5087894;28;20044;-86
2022/12/30 06:44:18;;;;;;;;;;;4.00;99.90;;;;;;5070195;28;19928;-85
2022/12/30 06:46:43;;;;;;;;;;;4.00;99.90;;;;;;5075171;28;20004;-85
2022/12/30 06:49:09;;;;;;;;;;;3.90;99.90;;;;;;5076082;28;19920;-85
2022/12/30 06:51:34;;;;;;;;;;;4.00;99.90;;;;;;5089368;28;19958;-86
2022/12/30 06:54:00;;;;;;;;;;;4.00;99.90;;;;;;5067774;28;19920;-86
2022/12/30 06:56:26;;;;;;;;;;;4.00;99.90;;;;;;5053661;28;19934;-87
2022/12/30 06:58:51;;;;;;;;;;;4.60;99.90;;;;;;5086550;28;19928;-86
2022/12/30 07:01:17;;;;;;;;;;;4.00;99.90;;;;;;5069594;28;19965;-86
2022/12/30 07:03:42;;;;;;;;;;;4.10;99.90;;;;;;5051088;28;19963;-86
2022/12/30 07:06:11;;;;;;;;;;;4.00;99.90;;;;;;5070974;28;19920;-86
2022/12/30 07:08:36;;;;;;;;;;;4.20;99.90;;;;;;5051738;28;20852;-86
2022/12/30 07:11:02;;;;;;;;;;;4.00;99.90;;;;;;5065522;28;19959;-86
2022/12/30 07:13:28;;;;;;;;;;;4.10;99.90;;;;;;5084843;28;19924;-86
2022/12/30 07:15:54;;;;;;;;;;;4.10;99.90;;;;;;5065543;28;19927;-86
2022/12/30 07:18:19;;;;;;;;;;;4.20;99.90;;;;;;5083129;28;19931;-86
2022/12/30 07:20:45;;;;;;;;;;;4.20;99.90;;;;;;5052749;28;19924;-86
2022/12/30 07:23:10;;;;;;;;;;;3.90;99.90;;;;;;5053553;28;19920;-86
2022/12/30 07:25:36;;;;;;;;;;;4.60;99.90;;;;;;5069013;28;20263;-86
2022/12/30 07:28:02;;;;;;;;;;;4.20;99.90;;;;;;5051952;28;19920;-86
2022/12/30 07:30:28;;;;;;;;;;;4.20;99.90;;;;;;5061898;28;19920;-86
2022/12/30 07:32:54;;;;;;;;;;;4.20;99.90;;;;;;5068490;28;19968;-86
2022/12/30 07:35:20;;;;;;;;;;;4.20;99.90;;;;;;5082120;28;20431;-87
2022/12/30 07:37:45;;;;;;;;;;;4.20;99.90;;;;;;5066151;28;19920;-86
2022/12/30 07:40:11;;;;;;;;;;;5.20;99.90;;;;;;5046647;28;20007;-86
2022/12/30 07:42:36;;;;;;;;;;;4.20;99.90;;;;;;5052993;28;19923;-86
2022/12/30 07:45:02;;;;;;;;;;;4.80;99.90;;;;;;5068161;28;19927;-87
2022/12/30 07:47:32;;;;;;;;;;;4.20;99.90;;;;;;5070338;28;19927;-87
2022/12/30 07:49:58;;;;;;;;;;;4.30;99.90;;;;;;5068888;28;20323;-86
2022/12/30 07:52:24;;;;;;;;;;;4.40;99.90;;;;;;5069485;28;19932;-86
2022/12/30 07:54:49;;;;;;;;;;;4.30;99.90;;;;;;5066998;28;19930;-86
2022/12/30 07:57:15;;;;;;;;;;;4.30;99.90;;;;;;5046019;28;19920;-86
2022/12/30 07:59:40;;;;;;;;;;;4.80;99.90;;;;;;5064516;28;19943;-86
2022/12/30 08:02:07;;;;;;;;;;;4.30;99.90;;;;;;5052699;28;19920;-86
2022/12/30 08:04:33;;;;;;;;;;;4.30;99.90;;;;;;5067796;28;20412;-86
2022/12/30 08:06:58;;;;;;;;;;;4.30;99.90;;;;;;5058854;28;19963;-86
2022/12/30 08:09:24;;;;;;;;;;;5.20;99.90;;;;;;5047132;28;20324;-86
2022/12/30 08:11:49;;;;;;;;;;;4.40;99.90;;;;;;5068277;28;19963;-86
2022/12/30 08:14:15;;;;;;;;;;;4.40;99.90;;;;;;5049968;28;20461;-86
2022/12/30 08:16:41;;;;;;;;;;;4.40;99.90;;;;;;5086488;28;19931;-88
2022/12/30 08:19:06;;;;;;;;;;;4.80;99.90;;;;;;5064608;28;19924;-86
2022/12/30 08:21:32;;;;;;;;;;;4.50;99.90;;;;;;5087141;27;19934;-87
2022/12/30 08:23:57;;;;;;;;;;;4.50;99.90;;;;;;5071847;28;19928;-87
2022/12/30 08:26:23;;;;;;;;;;;4.50;99.90;;;;;;5066249;28;20281;-85
2022/12/30 08:28:50;;;;;;;;;;;4.50;99.90;;;;;;5088521;27;19927;-84
2022/12/30 08:31:17;;;;;;;;;;;4.50;99.90;;;;;;5060577;28;19924;-84
2022/12/30 08:33:43;;;;;;;;;;;4.50;99.90;;;;;;5082207;27;20030;-85
2022/12/30 08:36:10;;;;;;;;;;;4.50;99.90;;;;;;5072899;28;19920;-85
2022/12/30 08:38:37;;;;;;;;;;;4.60;99.90;;;;;;5074111;27;19931;-85
2022/12/30 08:41:23;;;;;;;;;;;4.60;99.90;;;;;;5070075;28;20309;-84
2022/12/30 08:43:49;;;;;;;;;;;4.60;99.90;;;;;;5069516;28;20064;-85
2022/12/30 08:46:15;;;;;;;;;;;4.70;99.90;;;;;;5076292;28;20397;-85
2022/12/30 08:48:41;;;;;;;;;;;4.70;99.90;;;;;;5091472;28;20269;-84
2022/12/30 08:51:07;;;;;;;;;;;4.80;99.90;;;;;;5083712;28;19926;-87
2022/12/30 08:53:33;;;;;;;;;;;5.00;99.90;;;;;;5069406;27;19931;-87
2022/12/30 08:56:10;;;;;;;;;;;4.80;99.90;;;;;;5064939;28;19927;-87
2022/12/30 08:58:35;;;;;;;;;;;4.90;99.90;;;;;;5083318;28;19920;-88
2022/12/30 09:01:09;;;;;;;;;;;5.00;99.90;;;;;;5056807;28;19927;-87
2022/12/30 09:03:35;;;;;;;;;;;4.90;99.90;;;;;;5067445;28;19924;-88
2022/12/30 09:06:01;;;;;;;;;;;5.00;99.90;;;;;;5068178;28;19920;-86
2022/12/30 09:08:27;;;;;;;;;;;5.10;99.90;;;;;;5049913;28;19934;-85
2022/12/30 09:11:00;;;;;;;;;;;5.10;99.90;;;;;;5062365;28;19928;-86
2022/12/30 09:13:26;;;;;;;;;;;5.20;99.90;;;;;;5083759;28;20671;-87
2022/12/30 09:15:51;;;;;;;;;;;5.20;99.90;;;;;;5063263;28;19931;-86
2022/12/30 09:18:17;;;;;;;;;;;5.20;99.90;;;;;;5066584;28;20575;-87
2022/12/30 09:20:43;;;;;;;;;;;5.20;99.90;;;;;;5069644;28;19934;-85
2022/12/30 09:23:09;;;;;;;;;;;5.30;99.90;;;;;;5085451;28;19920;-84
2022/12/30 09:25:35;;;;;;;;;;;5.30;99.90;;;;;;5067633;28;20003;-83
2022/12/30 09:28:00;;;;;;;;;;;5.70;99.90;;;;;;5067512;28;19976;-83
2022/12/30 09:30:26;;;;;;;;;;;5.40;99.90;;;;;;5048259;28;19921;-84
2022/12/30 09:32:51;;;;;;;;;;;5.40;99.90;;;;;;5083826;28;19924;-85
2022/12/30 09:35:17;;;;;;;;;;;5.40;99.90;;;;;;5068168;28;19920;-85
2022/12/30 09:37:43;;;;;;;;;;;5.40;99.90;;;;;;5062084;28;19926;-85
2022/12/30 09:40:13;;;;;;;;;;;5.60;99.90;;;;;;5059538;28;19966;-85
2022/12/30 09:45:27;;;;;;;;;;;5.50;99.90;;;;;;5063071;28;19936;-86
2022/12/30 09:47:54;;;;;;;;;;;5.50;99.90;;;;;;5084313;28;19923;-85
2022/12/30 09:50:29;;;;;;;;;;;5.50;99.90;;;;;;5077603;28;19931;-85
2022/12/30 09:53:01;;;;;;;;;;;5.60;99.90;;;;;;5087084;28;19924;-84
2022/12/30 09:55:28;;;;;;;;;;;5.60;99.90;;;;;;5087155;28;19920;-84
2022/12/30 09:58:05;;;;;;;;;;;5.60;99.90;;;;;;5058091;28;19924;-84
2022/12/30 10:00:33;;;;;;;;;;;5.70;99.90;;;;;;5072108;28;19920;-84
2022/12/30 10:03:07;;;;;;;;;;;5.70;99.90;;;;;;5067373;28;20010;-84
2022/12/30 10:05:53;;;;;;;;;;;5.80;99.90;;;;;;5068115;28;20353;-84
2022/12/30 10:08:39;;;;;;;;;;;5.80;99.90;;;;;;5068264;28;20385;-84
2022/12/30 10:11:26;;;;;;;;;;;5.90;99.90;;;;;;5068869;28;19972;-84
2022/12/30 10:14:11;;;;;;;;;;;5.90;99.90;;;;;;5072071;28;19928;-84
2022/12/30 10:16:39;;;;;;;;;;;5.90;99.90;;;;;;5068964;28;20326;-84
2022/12/30 10:19:05;;;;;;;;;;;6.00;99.90;;;;;;5092075;28;19928;-84
2022/12/30 10:21:40;;;;;;;;;;;6.30;99.90;;;;;;5062179;28;19927;-84
2022/12/30 10:24:19;;;;;;;;;;;6.00;99.90;;;;;;5087033;28;20006;-84
2022/12/30 10:26:46;;;;;;;;;;;6.10;99.90;;;;;;5070804;28;20003;-84
2022/12/30 10:29:30;;;;;;;;;;;6.20;99.90;;;;;;5072926;28;19993;-84
2022/12/30 10:31:57;;;;;;;;;;;6.20;99.90;;;;;;5071383;28;19976;-84
2022/12/30 10:34:30;;;;;;;;;;;6.40;99.90;;;;;;5088183;28;19920;-84
2022/12/30 10:36:58;;;;;;;;;;;6.40;99.90;;;;;;5067659;28;20000;-84
2022/12/30 10:39:30;;;;;;;;;;;6.50;99.90;;;;;;5084339;28;20331;-84
2022/12/30 10:41:55;;;;;;;;;;;6.60;99.90;;;;;;5071737;28;19927;-84
2022/12/30 10:44:21;;;;;;;;;;;6.60;99.90;;;;;;5068607;28;19923;-84
2022/12/30 10:46:47;;;;;;;;;;;6.80;99.90;;;;;;5062016;28;19920;-84
2022/12/30 10:49:31;;;;;;;;;;;6.80;99.90;;;;;;5069966;28;20383;-84
2022/12/30 10:51:57;;;;;;;;;;;6.90;99.90;;;;;;5089317;28;19930;-84
2022/12/30 10:54:23;;;;;;;;;;;6.90;99.90;;;;;;5055079;28;20351;-84
2022/12/30 10:56:49;;;;;;;;;;;6.90;99.90;;;;;;5072541;28;19920;-84
2022/12/30 10:59:17;;;;;;;;;;;7.00;99.90;;;;;;5069894;28;19928;-84
2022/12/30 11:01:43;;;;;;;;;;;7.00;99.90;;;;;;5071174;28;20729;-84
2022/12/30 11:04:28;;;;;;;;;;;7.00;99.90;;;;;;5088397;28;20002;-84
2022/12/30 11:06:58;;;;;;;;;;;7.00;99.90;;;;;;5107886;28;20480;-84
2022/12/30 11:09:23;;;;;;;;;;;7.00;99.90;;;;;;5065213;28;19928;-84
2022/12/30 11:14:44;;;;;;;;;;;7.00;99.90;;;;;;5086582;28;19928;-84
2022/12/30 11:17:09;;;;;;;;;;;7.00;99.90;;;;;;5069085;28;20377;-84
2022/12/30 11:19:35;;;;;;;;;;;7.00;99.90;;;;;;5074767;28;19959;-84
2022/12/30 11:22:02;;;;;;;;;;;7.10;99.90;;;;;;5077951;28;19927;-84
2022/12/30 11:24:28;;;;;;;;;;;7.10;99.90;;;;;;5089514;28;19920;-84
2022/12/30 11:26:53;;;;;;;;;;;7.10;99.90;;;;;;5051505;28;19924;-84
2022/12/30 11:29:20;;;;;;;;;;;7.10;99.90;;;;;;5080351;28;19981;-84
2022/12/30 11:31:48;;;;;;;;;;;7.20;99.90;;;;;;5093453;28;19919;-84
2022/12/30 11:34:31;;;;;;;;;;;7.20;99.90;;;;;;5090457;28;19924;-84
2022/12/30 11:36:58;;;;;;;;;;;7.30;99.90;;;;;;5083083;28;19920;-84
2022/12/30 11:39:24;;;;;;;;;;;7.40;99.90;;;;;;5055741;28;20437;-84
2022/12/30 11:41:57;;;;;;;;;;;7.40;99.90;;;;;;5067478;28;19920;-83
2022/12/30 11:44:26;;;;;;;;;;;7.40;99.90;;;;;;5071936;28;19962;-83
2022/12/30 11:46:53;;;;;;;;;;;7.50;99.90;;;;;;5068733;28;20681;-84
2022/12/30 11:49:21;;;;;;;;;;;7.50;99.90;;;;;;5084467;28;19924;-85
2022/12/30 11:51:50;;;;;;;;;;;7.50;99.90;;;;;;5069293;28;19980;-84
2022/12/30 11:54:20;;;;;;;;;;;7.50;99.90;;;;;;5068530;28;19934;-85
2022/12/30 11:57:05;;;;;;;;;;;7.50;99.90;;;;;;5107282;27;20261;-96
2022/12/30 11:59:42;;;;;;;;;;;7.50;99.90;;;;;;5086797;28;20283;-85
2022/12/30 12:02:23;;;;;;;;;;;7.50;99.90;;;;;;5090471;28;19919;-84
2022/12/30 12:04:49;;;;;;;;;;;7.50;99.90;;;;;;5089670;28;19927;-84
2022/12/30 12:07:15;;;;;;;;;;;7.50;99.90;;;;;;5071803;28;20361;-84
2022/12/30 12:09:41;;;;;;;;;;;7.50;99.90;;;;;;5073198;28;20631;-84
2022/12/30 12:12:11;;;;;;;;;;;7.60;99.90;;;;;;5072306;28;19935;-82
2022/12/30 12:14:55;;;;;;;;;;;7.60;99.90;;;;;;5088622;28;19928;-82
2022/12/30 12:17:44;;;;;;;;;;;7.70;99.90;;;;;;5071622;28;20369;-82
2022/12/30 12:20:14;;;;;;;;;;;7.70;99.90;;;;;;5066190;28;19967;-82
2022/12/30 12:22:50;;;;;;;;;;;7.70;99.90;;;;;;5074270;28;20358;-82
2022/12/30 12:25:23;;;;;;;;;;;7.50;99.90;;;;;;5073804;28;19919;-83
2022/12/30 12:27:50;;;;;;;;;;;7.70;99.90;;;;;;5102491;28;19971;-82
2022/12/30 12:30:15;;;;;;;;;;;7.80;99.90;;;;;;5087904;28;19920;-84
2022/12/30 12:33:00;;;;;;;;;;;7.80;99.90;;;;;;5054627;28;19930;-83
2022/12/30 12:35:41;;;;;;;;;;;7.80;99.90;;;;;;5088018;28;19928;-84
2022/12/30 12:38:22;;;;;;;;;;;7.80;99.90;;;;;;5107245;27;19926;-83
2022/12/30 12:40:55;;;;;;;;;;;7.90;99.90;;;;;;5088293;28;19967;-83
2022/12/30 12:43:22;;;;;;;;;;;7.90;99.90;;;;;;5084083;28;19984;-83
2022/12/30 12:45:48;;;;;;;;;;;7.90;99.90;;;;;;5088791;28;19919;-83
2022/12/30 12:48:20;;;;;;;;;;;7.90;99.90;;;;;;5068753;28;19972;-83
2022/12/30 12:50:51;;;;;;;;;;;7.90;99.90;;;;;;5067836;28;20483;-84
2022/12/30 12:53:17;;;;;;;;;;;7.90;99.90;;;;;;5071798;28;19977;-83
2022/12/30 12:55:59;;;;;;;;;;;8.00;99.90;;;;;;5071008;28;19927;-82
2022/12/30 12:58:41;;;;;;;;;;;8.00;99.90;;;;;;5087555;28;19923;-83
2022/12/30 13:01:18;;;;;;;;;;;8.00;99.90;;;;;;5071687;28;19999;-83
2022/12/30 13:04:02;;;;;;;;;;;8.00;99.90;;;;;;5088712;28;19981;-83
2022/12/30 13:06:32;;;;;;;;;;;8.10;99.90;;;;;;5085714;28;21833;-82
2022/12/30 13:09:01;;;;;;;;;;;8.10;99.90;;;;;;5086345;27;19927;-83
2022/12/30 13:11:35;;;;;;;;;;;8.00;99.90;;;;;;5073214;28;19959;-83
2022/12/30 13:14:09;;;;;;;;;;;8.10;99.90;;;;;;5086506;28;19932;-83
2022/12/30 13:16:41;;;;;;;;;;;8.20;99.90;;;;;;5070389;27;19932;-83
2022/12/30 13:19:11;;;;;;;;;;;8.20;99.90;;;;;;5086808;28;19923;-82
2022/12/30 13:21:37;;;;;;;;;;;8.20;99.90;;;;;;5070113;28;19955;-82
2022/12/30 13:24:04;;;;;;;;;;;8.30;99.90;;;;;;5068197;28;19924;-82
2022/12/30 13:26:32;;;;;;;;;;;8.30;99.90;;;;;;5109739;28;19998;-81
2022/12/30 13:28:59;;;;;;;;;;;8.20;99.90;;;;;;5063285;28;20018;-81
2022/12/30 13:31:30;;;;;;;;;;;8.20;99.90;;;;;;5073988;28;19923;-81
2022/12/30 13:34:02;;;;;;;;;;;8.10;99.90;;;;;;5089388;28;19931;-81
2022/12/30 13:36:46;;;;;;;;;;;8.10;99.90;;;;;;5089771;28;20364;-82
2022/12/30 13:39:31;;;;;;;;;;;8.10;99.90;;;;;;5085746;28;19919;-81
2022/12/30 13:41:59;;;;;;;;;;;8.10;99.90;;;;;;5068425;27;19927;-81
2022/12/30 13:44:29;;;;;;;;;;;8.20;99.90;;;;;;5068930;28;19923;-85
2022/12/30 13:46:55;;;;;;;;;;;8.20;99.90;;;;;;5078939;28;19920;-86
2022/12/30 13:49:29;;;;;;;;;;;8.10;99.90;;;;;;5071929;28;19927;-87
2022/12/30 13:51:56;;;;;;;;;;;8.10;99.90;;;;;;5088020;28;20068;-87
2022/12/30 13:54:22;;;;;;;;;;;8.20;99.90;;;;;;5086243;28;19942;-86
2022/12/30 13:56:49;;;;;;;;;;;8.20;99.90;;;;;;5067584;28;20401;-85
2022/12/30 13:59:38;;;;;;;;;;;8.20;99.90;;;;;;5071011;28;19926;-89
2022/12/30 14:02:16;;;;;;;;;;;8.20;99.90;;;;;;5056912;28;20542;-89
2022/12/30 14:04:49;;;;;;;;;;;8.20;99.90;;;;;;5087557;28;20407;-88
2022/12/30 14:07:33;;;;;;;;;;;8.20;99.90;;;;;;5066095;28;20007;-88
2022/12/30 14:10:14;;;;;;;;;;;8.20;99.90;;;;;;5061669;28;19933;-87
2022/12/30 14:12:41;;;;;;;;;;;8.30;99.90;;;;;;5065015;28;19947;-87
2022/12/30 14:15:25;;;;;;;;;;;8.30;99.90;;;;;;5069305;28;19920;-88
2022/12/30 14:17:51;;;;;;;;;;;8.30;99.90;;;;;;5082037;28;19920;-88
2022/12/30 14:20:19;;;;;;;;;;;8.40;99.90;;;;;;5052734;28;19927;-88
2022/12/30 14:22:45;;;;;;;;;;;8.50;99.90;;;;;;5079251;28;19920;-88
2022/12/30 14:25:13;;;;;;;;;;;8.50;99.90;;;;;;5082994;28;19920;-88
2022/12/30 14:27:41;;;;;;;;;;;8.50;99.90;;;;;;5064594;28;19960;-86
2022/12/30 14:30:25;;;;;;;;;;;8.50;99.90;;;;;;5068476;28;19973;-85
2022/12/30 14:32:59;;;;;;;;;;;8.40;99.90;;;;;;5081841;28;20003;-85
2022/12/30 14:35:24;;;;;;;;;;;8.40;99.90;;;;;;5103039;27;19932;-85
2022/12/30 14:37:50;;;;;;;;;;;8.40;99.90;;;;;;5082665;28;20258;-86
2022/12/30 14:40:29;;;;;;;;;;;8.30;99.90;;;;;;5064962;28;19920;-86
2022/12/30 14:42:55;;;;;;;;;;;8.30;99.90;;;;;;5054534;28;19920;-87
2022/12/30 14:45:24;;;;;;;;;;;8.10;99.90;;;;;;5044680;28;19924;-86
2022/12/30 14:47:49;;;;;;;;;;;8.00;99.90;;;;;;5075548;28;19980;-86
2022/12/30 14:50:16;;;;;;;;;;;8.00;99.90;;;;;;5042761;28;19923;-86
2022/12/30 14:52:51;;;;;;;;;;;7.90;99.90;;;;;;5061403;28;19947;-85
2022/12/30 14:55:21;;;;;;;;;;;8.00;99.90;;;;;;5068305;28;19924;-86
2022/12/30 14:57:56;;;;;;;;;;;8.00;99.90;;;;;;5056222;28;19924;-86
2022/12/30 15:00:22;;;;;;;;;;;8.00;99.90;;;;;;5078824;28;19924;-86
2022/12/30 15:02:52;;;;;;;;;;;8.00;99.90;;;;;;5050724;28;20443;-86
2022/12/30 15:05:19;;;;;;;;;;;8.00;99.90;;;;;;5065371;28;19920;-86
2022/12/30 15:07:46;;;;;;;;;;;8.00;99.90;;;;;;5076661;28;19931;-86
2022/12/30 15:10:33;;;;;;;;;;;8.00;99.90;;;;;;5061175;28;19928;-86
2022/12/30 15:13:07;;;;;;;;;;;8.00;99.90;;;;;;5058820;28;19967;-86
2022/12/30 15:15:33;;;;;;;;;;;7.80;99.90;;;;;;5056383;28;19927;-86
2022/12/30 15:17:59;;;;;;;;;;;7.80;99.90;;;;;;5067509;28;19921;-86
2022/12/30 15:20:29;;;;;;;;;;;7.80;99.90;;;;;;5050496;28;20384;-86
2022/12/30 15:22:55;;;;;;;;;;;7.80;99.90;;;;;;5061969;28;19931;-85
2022/12/30 15:25:21;;;;;;;;;;;7.80;99.90;;;;;;5065038;28;20027;-86
2022/12/30 15:27:51;;;;;;;;;;;7.80;99.90;;;;;;5062013;28;19971;-86
2022/12/30 15:30:18;;;;;;;;;;;7.80;99.90;;;;;;5071001;28;20004;-85
2022/12/30 15:32:44;;;;;;;;;;;7.90;99.90;;;;;;5062349;28;19924;-86
2022/12/30 15:35:17;;;;;;;;;;;7.90;99.90;;;;;;5067522;28;19925;-85